sensor_id;sensor_type;location;lat;lon;timestamp;temperature;humidity
10304;DHT22;5197;48.152;8.590;2023-06-19T00:01:13;21.00;1.00
10304;DHT22;5197;48.152;8.590;2023-06-19T00:03:41;20.90;1.00
10304;DHT22;5197;48.152;8.590;2023-06-19T00:06:08;21.00;1.00
10304;DHT22;5197;48.152;8.590;2023-06-19T00:08:35;19.80;1.00
10304;DHT22;5197;48.152;8.590;2023-06-19T00:11:03;21.00;1.00
10304;DHT22;5197;48.152;8.590;2023-06-19T00:13:30;21.00;1.00
10304;DHT22;5197;48.152;8.590;2023-06-19T00:15:57;21.00;1.00
10304;DHT22;5197;48.152;8.590;2023-06-19T00:18:28;20.90;1.00
10304;DHT22;5197;48.152;8.590;2023-06-19T00:20:55;21.00;1.00
10304;DHT22;5197;48.152;8.590;2023-06-19T00:23:23;21.00;1.00
10304;DHT22;5197;48.152;8.590;2023-06-19T00:25:50;21.00;1.00
10304;DHT22;5197;48.152;8.590;2023-06-19T00:28:17;21.00;1.00
10304;DHT22;5197;48.152;8.590;2023-06-19T00:30:46;21.00;1.00
10304;DHT22;5197;48.152;8.590;2023-06-19T00:33:13;21.00;1.00
10304;DHT22;5197;48.152;8.590;2023-06-19T00:35:41;20.90;1.00
10304;DHT22;5197;48.152;8.590;2023-06-19T00:38:08;21.00;1.00
10304;DHT22;5197;48.152;8.590;2023-06-19T00:40:35;21.00;1.00
10304;DHT22;5197;48.152;8.590;2023-06-19T00:43:03;21.00;1.00
10304;DHT22;5197;48.152;8.590;2023-06-19T00:45:30;21.00;1.00
10304;DHT22;5197;48.152;8.590;2023-06-19T00:47:59;21.00;1.00
10304;DHT22;5197;48.152;8.590;2023-06-19T00:50:28;20.60;1.00
10304;DHT22;5197;48.152;8.590;2023-06-19T00:52:58;20.30;1.00
10304;DHT22;5197;48.152;8.590;2023-06-19T00:55:28;20.20;1.00
10304;DHT22;5197;48.152;8.590;2023-06-19T00:57:56;20.20;1.00
10304;DHT22;5197;48.152;8.590;2023-06-19T01:00:24;20.20;1.00
10304;DHT22;5197;48.152;8.590;2023-06-19T01:02:52;20.10;1.00
10304;DHT22;5197;48.152;8.590;2023-06-19T01:05:19;19.90;1.00
10304;DHT22;5197;48.152;8.590;2023-06-19T01:07:57;20.40;1.00
10304;DHT22;5197;48.152;8.590;2023-06-19T01:10:33;19.80;1.00
10304;DHT22;5197;48.152;8.590;2023-06-19T01:15:32;19.60;1.00
10304;DHT22;5197;48.152;8.590;2023-06-19T01:17:59;19.50;1.00
10304;DHT22;5197;48.152;8.590;2023-06-19T01:20:27;19.40;1.00
10304;DHT22;5197;48.152;8.590;2023-06-19T01:22:55;19.30;1.00
10304;DHT22;5197;48.152;8.590;2023-06-19T01:25:24;19.20;1.00
10304;DHT22;5197;48.152;8.590;2023-06-19T01:27:51;19.10;1.00
10304;DHT22;5197;48.152;8.590;2023-06-19T01:30:19;19.00;1.00
10304;DHT22;5197;48.152;8.590;2023-06-19T01:32:58;21.30;1.00
10304;DHT22;5197;48.152;8.590;2023-06-19T01:35:29;18.90;1.00
10304;DHT22;5197;48.152;8.590;2023-06-19T01:37:57;18.80;1.00
10304;DHT22;5197;48.152;8.590;2023-06-19T01:40:27;18.80;1.00
10304;DHT22;5197;48.152;8.590;2023-06-19T01:42:59;18.80;1.00
10304;DHT22;5197;48.152;8.590;2023-06-19T01:45:31;18.80;1.00
10304;DHT22;5197;48.152;8.590;2023-06-19T01:47:59;18.80;1.00
10304;DHT22;5197;48.152;8.590;2023-06-19T01:50:26;18.80;1.00
10304;DHT22;5197;48.152;8.590;2023-06-19T01:52:53;18.90;1.00
10304;DHT22;5197;48.152;8.590;2023-06-19T01:55:20;18.90;1.00
10304;DHT22;5197;48.152;8.590;2023-06-19T01:57:48;19.00;1.00
10304;DHT22;5197;48.152;8.590;2023-06-19T02:00:15;19.10;1.00
10304;DHT22;5197;48.152;8.590;2023-06-19T02:02:43;19.30;1.00
10304;DHT22;5197;48.152;8.590;2023-06-19T02:05:10;19.30;1.00
10304;DHT22;5197;48.152;8.590;2023-06-19T02:07:38;19.30;1.00
10304;DHT22;5197;48.152;8.590;2023-06-19T02:10:06;19.40;1.00
10304;DHT22;5197;48.152;8.590;2023-06-19T02:12:33;19.40;1.00
10304;DHT22;5197;48.152;8.590;2023-06-19T02:15:00;19.60;1.00
10304;DHT22;5197;48.152;8.590;2023-06-19T02:17:27;19.50;1.00
10304;DHT22;5197;48.152;8.590;2023-06-19T02:19:54;19.50;1.00
10304;DHT22;5197;48.152;8.590;2023-06-19T02:22:21;19.50;1.00
10304;DHT22;5197;48.152;8.590;2023-06-19T02:24:48;19.50;1.00
10304;DHT22;5197;48.152;8.590;2023-06-19T02:27:15;19.50;1.00
10304;DHT22;5197;48.152;8.590;2023-06-19T02:29:42;19.50;1.00
10304;DHT22;5197;48.152;8.590;2023-06-19T02:32:09;19.50;1.00
10304;DHT22;5197;48.152;8.590;2023-06-19T02:34:37;19.50;1.00
10304;DHT22;5197;48.152;8.590;2023-06-19T02:37:05;19.50;1.00
10304;DHT22;5197;48.152;8.590;2023-06-19T02:39:32;19.10;1.00
10304;DHT22;5197;48.152;8.590;2023-06-19T02:41:59;19.50;1.00
10304;DHT22;5197;48.152;8.590;2023-06-19T02:44:26;19.50;1.00
10304;DHT22;5197;48.152;8.590;2023-06-19T02:46:53;19.50;1.00
10304;DHT22;5197;48.152;8.590;2023-06-19T02:49:20;19.50;1.00
10304;DHT22;5197;48.152;8.590;2023-06-19T02:51:47;19.50;1.00
10304;DHT22;5197;48.152;8.590;2023-06-19T02:54:14;19.60;1.00
10304;DHT22;5197;48.152;8.590;2023-06-19T02:56:41;19.50;1.00
10304;DHT22;5197;48.152;8.590;2023-06-19T02:59:08;19.50;1.00
10304;DHT22;5197;48.152;8.590;2023-06-19T03:01:35;19.50;1.00
10304;DHT22;5197;48.152;8.590;2023-06-19T03:04:03;19.50;1.00
10304;DHT22;5197;48.152;8.590;2023-06-19T03:06:30;19.50;1.00
10304;DHT22;5197;48.152;8.590;2023-06-19T03:08:57;19.40;1.00
10304;DHT22;5197;48.152;8.590;2023-06-19T03:11:24;19.50;1.00
10304;DHT22;5197;48.152;8.590;2023-06-19T03:13:53;19.50;1.00
10304;DHT22;5197;48.152;8.590;2023-06-19T03:16:21;19.50;1.00
10304;DHT22;5197;48.152;8.590;2023-06-19T03:18:49;19.50;1.00
10304;DHT22;5197;48.152;8.590;2023-06-19T03:21:19;17.50;1.00
10304;DHT22;5197;48.152;8.590;2023-06-19T03:23:47;19.50;1.00
10304;DHT22;5197;48.152;8.590;2023-06-19T03:26:14;19.50;1.00
10304;DHT22;5197;48.152;8.590;2023-06-19T03:28:41;19.40;1.00
10304;DHT22;5197;48.152;8.590;2023-06-19T03:31:08;19.40;1.00
10304;DHT22;5197;48.152;8.590;2023-06-19T03:33:35;19.40;1.00
10304;DHT22;5197;48.152;8.590;2023-06-19T03:36:02;21.50;1.00
10304;DHT22;5197;48.152;8.590;2023-06-19T03:38:30;19.20;1.00
10304;DHT22;5197;48.152;8.590;2023-06-19T03:40:57;19.00;1.00
10304;DHT22;5197;48.152;8.590;2023-06-19T03:43:24;19.00;1.00
10304;DHT22;5197;48.152;8.590;2023-06-19T03:45:51;18.70;1.00
10304;DHT22;5197;48.152;8.590;2023-06-19T03:48:18;18.70;1.40
10304;DHT22;5197;48.152;8.590;2023-06-19T03:50:45;18.70;3.20
10304;DHT22;5197;48.152;8.590;2023-06-19T03:53:12;18.70;3.40
10304;DHT22;5197;48.152;8.590;2023-06-19T03:55:39;18.70;3.50
10304;DHT22;5197;48.152;8.590;2023-06-19T03:58:06;18.70;3.50
10304;DHT22;5197;48.152;8.590;2023-06-19T04:00:33;18.70;3.40
10304;DHT22;5197;48.152;8.590;2023-06-19T04:03:00;18.70;3.40
10304;DHT22;5197;48.152;8.590;2023-06-19T04:05:28;18.60;3.40
10304;DHT22;5197;48.152;8.590;2023-06-19T04:07:55;18.50;3.40
10304;DHT22;5197;48.152;8.590;2023-06-19T04:10:22;18.60;3.40
10304;DHT22;5197;48.152;8.590;2023-06-19T04:12:49;18.50;3.40
10304;DHT22;5197;48.152;8.590;2023-06-19T04:15:17;18.60;3.40
10304;DHT22;5197;48.152;8.590;2023-06-19T04:17:44;18.60;3.70
10304;DHT22;5197;48.152;8.590;2023-06-19T04:20:11;18.60;4.20
10304;DHT22;5197;48.152;8.590;2023-06-19T04:22:42;18.60;4.60
10304;DHT22;5197;48.152;8.590;2023-06-19T04:25:10;18.60;4.80
10304;DHT22;5197;48.152;8.590;2023-06-19T04:27:40;18.60;5.10
10304;DHT22;5197;48.152;8.590;2023-06-19T04:30:07;18.60;5.50
10304;DHT22;5197;48.152;8.590;2023-06-19T04:32:35;18.50;5.80
10304;DHT22;5197;48.152;8.590;2023-06-19T04:35:02;18.40;6.10
10304;DHT22;5197;48.152;8.590;2023-06-19T04:37:30;18.30;6.70
10304;DHT22;5197;48.152;8.590;2023-06-19T04:39:57;18.30;7.50
10304;DHT22;5197;48.152;8.590;2023-06-19T04:42:24;18.30;7.60
10304;DHT22;5197;48.152;8.590;2023-06-19T04:44:53;18.40;8.00
10304;DHT22;5197;48.152;8.590;2023-06-19T04:47:23;18.40;8.00
10304;DHT22;5197;48.152;8.590;2023-06-19T04:49:56;18.40;8.20
10304;DHT22;5197;48.152;8.590;2023-06-19T04:52:23;18.40;8.30
10304;DHT22;5197;48.152;8.590;2023-06-19T04:54:50;18.40;8.40
10304;DHT22;5197;48.152;8.590;2023-06-19T04:57:17;18.40;8.50
10304;DHT22;5197;48.152;8.590;2023-06-19T04:59:44;18.40;8.60
10304;DHT22;5197;48.152;8.590;2023-06-19T05:02:12;18.40;8.90
10304;DHT22;5197;48.152;8.590;2023-06-19T05:04:39;18.40;9.10
10304;DHT22;5197;48.152;8.590;2023-06-19T05:07:10;18.40;9.40
10304;DHT22;5197;48.152;8.590;2023-06-19T05:09:37;18.40;9.70
10304;DHT22;5197;48.152;8.590;2023-06-19T05:12:05;18.60;9.80
10304;DHT22;5197;48.152;8.590;2023-06-19T05:14:32;18.40;9.80
10304;DHT22;5197;48.152;8.590;2023-06-19T05:16:59;18.40;10.00
10304;DHT22;5197;48.152;8.590;2023-06-19T05:19:26;18.40;10.00
10304;DHT22;5197;48.152;8.590;2023-06-19T05:21:53;18.40;10.20
10304;DHT22;5197;48.152;8.590;2023-06-19T05:24:20;18.40;9.90
10304;DHT22;5197;48.152;8.590;2023-06-19T05:26:47;18.40;9.90
10304;DHT22;5197;48.152;8.590;2023-06-19T05:29:15;18.40;9.90
10304;DHT22;5197;48.152;8.590;2023-06-19T05:31:41;18.40;9.70
10304;DHT22;5197;48.152;8.590;2023-06-19T05:34:09;18.50;9.80
10304;DHT22;5197;48.152;8.590;2023-06-19T05:36:36;18.50;9.40
10304;DHT22;5197;48.152;8.590;2023-06-19T05:39:03;18.60;9.50
10304;DHT22;5197;48.152;8.590;2023-06-19T05:41:30;18.60;9.50
10304;DHT22;5197;48.152;8.590;2023-06-19T05:43:58;18.60;9.40
10304;DHT22;5197;48.152;8.590;2023-06-19T05:46:25;18.60;9.10
10304;DHT22;5197;48.152;8.590;2023-06-19T05:48:52;18.60;9.10
10304;DHT22;5197;48.152;8.590;2023-06-19T05:51:21;18.70;8.90
10304;DHT22;5197;48.152;8.590;2023-06-19T05:53:48;18.70;9.00
10304;DHT22;5197;48.152;8.590;2023-06-19T05:56:18;18.70;9.00
10304;DHT22;5197;48.152;8.590;2023-06-19T05:58:45;18.80;9.00
10304;DHT22;5197;48.152;8.590;2023-06-19T06:01:12;18.80;8.90
10304;DHT22;5197;48.152;8.590;2023-06-19T06:03:43;18.90;8.90
10304;DHT22;5197;48.152;8.590;2023-06-19T06:06:10;19.00;8.90
10304;DHT22;5197;48.152;8.590;2023-06-19T06:08:37;19.00;9.00
10304;DHT22;5197;48.152;8.590;2023-06-19T06:11:04;19.00;8.40
10304;DHT22;5197;48.152;8.590;2023-06-19T06:13:31;19.10;10.00
10304;DHT22;5197;48.152;8.590;2023-06-19T06:15:58;19.20;10.00
10304;DHT22;5197;48.152;8.590;2023-06-19T06:18:25;19.20;9.40
10304;DHT22;5197;48.152;8.590;2023-06-19T06:20:52;19.30;9.50
10304;DHT22;5197;48.152;8.590;2023-06-19T06:23:19;19.40;9.30
10304;DHT22;5197;48.152;8.590;2023-06-19T06:25:46;19.60;9.40
10304;DHT22;5197;48.152;8.590;2023-06-19T06:28:13;19.70;9.30
10304;DHT22;5197;48.152;8.590;2023-06-19T06:30:41;20.10;8.80
10304;DHT22;5197;48.152;8.590;2023-06-19T06:33:09;19.90;8.10
10304;DHT22;5197;48.152;8.590;2023-06-19T06:35:36;20.00;7.60
10304;DHT22;5197;48.152;8.590;2023-06-19T06:38:03;20.00;7.20
10304;DHT22;5197;48.152;8.590;2023-06-19T06:40:31;20.10;7.20
10304;DHT22;5197;48.152;8.590;2023-06-19T06:42:58;20.10;6.80
10304;DHT22;5197;48.152;8.590;2023-06-19T06:45:25;20.20;7.00
10304;DHT22;5197;48.152;8.590;2023-06-19T06:47:53;20.30;6.40
10304;DHT22;5197;48.152;8.590;2023-06-19T06:50:21;20.30;5.90
10304;DHT22;5197;48.152;8.590;2023-06-19T06:52:48;20.40;5.10
10304;DHT22;5197;48.152;8.590;2023-06-19T06:55:15;20.40;4.90
10304;DHT22;5197;48.152;8.590;2023-06-19T06:57:42;20.40;5.40
10304;DHT22;5197;48.152;8.590;2023-06-19T07:00:10;20.50;5.20
10304;DHT22;5197;48.152;8.590;2023-06-19T07:02:38;20.50;4.60
10304;DHT22;5197;48.152;8.590;2023-06-19T07:05:08;20.60;4.80
10304;DHT22;5197;48.152;8.590;2023-06-19T07:07:36;20.70;4.80
10304;DHT22;5197;48.152;8.590;2023-06-19T07:10:03;20.80;4.80
10304;DHT22;5197;48.152;8.590;2023-06-19T07:12:30;21.00;4.90
10304;DHT22;5197;48.152;8.590;2023-06-19T07:14:57;21.20;5.10
10304;DHT22;5197;48.152;8.590;2023-06-19T07:17:24;21.50;3.10
10304;DHT22;5197;48.152;8.590;2023-06-19T07:19:51;21.70;2.20
10304;DHT22;5197;48.152;8.590;2023-06-19T07:22:19;21.80;1.30
10304;DHT22;5197;48.152;8.590;2023-06-19T07:24:45;21.90;1.10
10304;DHT22;5197;48.152;8.590;2023-06-19T07:27:12;22.10;1.00
10304;DHT22;5197;48.152;8.590;2023-06-19T07:29:40;22.30;1.00
10304;DHT22;5197;48.152;8.590;2023-06-19T07:32:07;23.00;1.00
10304;DHT22;5197;48.152;8.590;2023-06-19T07:34:34;22.40;1.00
10304;DHT22;5197;48.152;8.590;2023-06-19T07:37:01;22.30;1.00
10304;DHT22;5197;48.152;8.590;2023-06-19T07:39:28;22.20;1.00
10304;DHT22;5197;48.152;8.590;2023-06-19T07:41:55;22.20;1.00
10304;DHT22;5197;48.152;8.590;2023-06-19T07:44:22;22.10;1.00
10304;DHT22;5197;48.152;8.590;2023-06-19T07:46:50;22.00;1.00
10304;DHT22;5197;48.152;8.590;2023-06-19T07:49:17;22.00;1.00
10304;DHT22;5197;48.152;8.590;2023-06-19T07:51:44;22.00;1.00
10304;DHT22;5197;48.152;8.590;2023-06-19T07:54:11;22.10;1.00
10304;DHT22;5197;48.152;8.590;2023-06-19T07:56:38;22.10;1.00
10304;DHT22;5197;48.152;8.590;2023-06-19T07:59:05;22.10;1.00
10304;DHT22;5197;48.152;8.590;2023-06-19T08:01:32;22.10;1.00
10304;DHT22;5197;48.152;8.590;2023-06-19T08:03:59;22.10;1.00
10304;DHT22;5197;48.152;8.590;2023-06-19T08:06:26;22.10;1.00
10304;DHT22;5197;48.152;8.590;2023-06-19T08:08:53;22.10;1.00
10304;DHT22;5197;48.152;8.590;2023-06-19T08:11:20;22.10;1.00
10304;DHT22;5197;48.152;8.590;2023-06-19T08:13:47;22.20;1.00
10304;DHT22;5197;48.152;8.590;2023-06-19T08:16:14;22.40;1.00
10304;DHT22;5197;48.152;8.590;2023-06-19T08:18:42;22.70;1.00
10304;DHT22;5197;48.152;8.590;2023-06-19T08:21:09;23.20;1.00
10304;DHT22;5197;48.152;8.590;2023-06-19T08:23:36;23.30;1.00
10304;DHT22;5197;48.152;8.590;2023-06-19T08:26:05;23.50;1.00
10304;DHT22;5197;48.152;8.590;2023-06-19T08:28:32;23.70;1.00
10304;DHT22;5197;48.152;8.590;2023-06-19T08:30:59;23.60;1.00
10304;DHT22;5197;48.152;8.590;2023-06-19T08:33:26;23.80;1.00
10304;DHT22;5197;48.152;8.590;2023-06-19T08:35:53;23.90;1.00
10304;DHT22;5197;48.152;8.590;2023-06-19T08:38:20;24.00;1.00
10304;DHT22;5197;48.152;8.590;2023-06-19T08:40:47;24.10;1.00
10304;DHT22;5197;48.152;8.590;2023-06-19T08:43:15;24.20;1.00
10304;DHT22;5197;48.152;8.590;2023-06-19T08:45:42;24.30;1.00
10304;DHT22;5197;48.152;8.590;2023-06-19T08:48:13;24.40;1.00
10304;DHT22;5197;48.152;8.590;2023-06-19T08:50:40;24.60;1.00
10304;DHT22;5197;48.152;8.590;2023-06-19T08:53:08;24.70;1.00
10304;DHT22;5197;48.152;8.590;2023-06-19T08:55:35;24.80;1.00
10304;DHT22;5197;48.152;8.590;2023-06-19T08:58:02;24.90;1.00
10304;DHT22;5197;48.152;8.590;2023-06-19T09:00:29;25.00;1.00
10304;DHT22;5197;48.152;8.590;2023-06-19T09:03:02;25.10;1.00
10304;DHT22;5197;48.152;8.590;2023-06-19T09:05:43;25.00;1.00
10304;DHT22;5197;48.152;8.590;2023-06-19T09:08:22;25.00;1.00
10304;DHT22;5197;48.152;8.590;2023-06-19T09:10:59;25.10;1.00
10304;DHT22;5197;48.152;8.590;2023-06-19T09:13:28;25.20;1.00
10304;DHT22;5197;48.152;8.590;2023-06-19T09:16:04;25.20;1.00
10304;DHT22;5197;48.152;8.590;2023-06-19T09:18:45;25.30;1.00
10304;DHT22;5197;48.152;8.590;2023-06-19T09:21:20;25.50;1.00
10304;DHT22;5197;48.152;8.590;2023-06-19T09:23:49;25.50;1.00
10304;DHT22;5197;48.152;8.590;2023-06-19T09:26:19;25.70;1.00
10304;DHT22;5197;48.152;8.590;2023-06-19T09:28:47;25.80;1.00
10304;DHT22;5197;48.152;8.590;2023-06-19T09:31:17;25.80;1.00
10304;DHT22;5197;48.152;8.590;2023-06-19T09:33:44;25.80;1.00
10304;DHT22;5197;48.152;8.590;2023-06-19T09:36:11;25.90;1.00
10304;DHT22;5197;48.152;8.590;2023-06-19T09:38:38;26.00;1.00
10304;DHT22;5197;48.152;8.590;2023-06-19T09:41:07;25.80;1.00
10304;DHT22;5197;48.152;8.590;2023-06-19T09:43:43;25.80;1.00
10304;DHT22;5197;48.152;8.590;2023-06-19T09:46:11;25.70;1.00
10304;DHT22;5197;48.152;8.590;2023-06-19T09:48:45;25.50;1.00
10304;DHT22;5197;48.152;8.590;2023-06-19T09:51:20;25.50;1.00
10304;DHT22;5197;48.152;8.590;2023-06-19T09:53:48;25.50;1.00
10304;DHT22;5197;48.152;8.590;2023-06-19T09:56:17;25.60;1.00
10304;DHT22;5197;48.152;8.590;2023-06-19T09:58:52;25.60;1.00
10304;DHT22;5197;48.152;8.590;2023-06-19T10:01:20;25.50;1.00
10304;DHT22;5197;48.152;8.590;2023-06-19T10:03:48;25.30;1.00
10304;DHT22;5197;48.152;8.590;2023-06-19T10:06:16;25.10;1.00
10304;DHT22;5197;48.152;8.590;2023-06-19T10:08:46;24.90;1.00
10304;DHT22;5197;48.152;8.590;2023-06-19T10:11:13;25.00;1.00
10304;DHT22;5197;48.152;8.590;2023-06-19T10:13:41;25.00;1.00
10304;DHT22;5197;48.152;8.590;2023-06-19T10:16:22;25.10;1.00
10304;DHT22;5197;48.152;8.590;2023-06-19T10:18:50;25.10;1.00
10304;DHT22;5197;48.152;8.590;2023-06-19T10:21:21;25.20;1.00
10304;DHT22;5197;48.152;8.590;2023-06-19T10:23:58;25.40;1.00
10304;DHT22;5197;48.152;8.590;2023-06-19T10:26:35;25.60;1.00
10304;DHT22;5197;48.152;8.590;2023-06-19T10:29:14;25.70;1.00
10304;DHT22;5197;48.152;8.590;2023-06-19T10:31:41;25.40;1.00
10304;DHT22;5197;48.152;8.590;2023-06-19T10:34:08;25.30;1.00
10304;DHT22;5197;48.152;8.590;2023-06-19T10:36:35;25.40;1.00
10304;DHT22;5197;48.152;8.590;2023-06-19T10:39:02;25.50;1.00
10304;DHT22;5197;48.152;8.590;2023-06-19T10:41:29;25.60;1.00
10304;DHT22;5197;48.152;8.590;2023-06-19T10:44:02;25.70;1.00
10304;DHT22;5197;48.152;8.590;2023-06-19T10:46:35;25.90;1.00
10304;DHT22;5197;48.152;8.590;2023-06-19T10:49:04;26.10;1.00
10304;DHT22;5197;48.152;8.590;2023-06-19T10:51:36;26.10;1.00
10304;DHT22;5197;48.152;8.590;2023-06-19T10:54:04;26.60;1.00
10304;DHT22;5197;48.152;8.590;2023-06-19T10:56:31;26.80;1.00
10304;DHT22;5197;48.152;8.590;2023-06-19T10:59:17;26.90;1.00
10304;DHT22;5197;48.152;8.590;2023-06-19T11:01:47;26.80;1.00
10304;DHT22;5197;48.152;8.590;2023-06-19T11:04:15;26.60;1.00
10304;DHT22;5197;48.152;8.590;2023-06-19T11:06:44;26.70;1.00
10304;DHT22;5197;48.152;8.590;2023-06-19T11:09:12;26.80;1.00
10304;DHT22;5197;48.152;8.590;2023-06-19T11:11:42;26.90;1.00
10304;DHT22;5197;48.152;8.590;2023-06-19T11:14:11;27.00;1.00
10304;DHT22;5197;48.152;8.590;2023-06-19T11:16:44;27.00;1.00
10304;DHT22;5197;48.152;8.590;2023-06-19T11:19:19;26.90;1.00
10304;DHT22;5197;48.152;8.590;2023-06-19T11:21:49;26.80;1.00
10304;DHT22;5197;48.152;8.590;2023-06-19T11:24:16;26.80;1.00
10304;DHT22;5197;48.152;8.590;2023-06-19T11:26:47;27.10;1.00
10304;DHT22;5197;48.152;8.590;2023-06-19T11:29:22;27.30;1.00
10304;DHT22;5197;48.152;8.590;2023-06-19T11:31:51;27.60;1.00
10304;DHT22;5197;48.152;8.590;2023-06-19T11:34:31;27.50;1.00
10304;DHT22;5197;48.152;8.590;2023-06-19T11:36:59;27.20;1.00
10304;DHT22;5197;48.152;8.590;2023-06-19T11:39:28;26.90;1.00
10304;DHT22;5197;48.152;8.590;2023-06-19T11:41:58;26.70;1.00
10304;DHT22;5197;48.152;8.590;2023-06-19T11:44:27;26.90;1.00
10304;DHT22;5197;48.152;8.590;2023-06-19T11:46:56;26.90;1.00
10304;DHT22;5197;48.152;8.590;2023-06-19T11:49:24;26.90;1.00
10304;DHT22;5197;48.152;8.590;2023-06-19T11:51:52;27.00;1.00
10304;DHT22;5197;48.152;8.590;2023-06-19T11:54:20;27.10;1.00
10304;DHT22;5197;48.152;8.590;2023-06-19T11:56:48;27.30;1.00
10304;DHT22;5197;48.152;8.590;2023-06-19T11:59:15;27.60;1.00
10304;DHT22;5197;48.152;8.590;2023-06-19T12:01:42;27.90;1.00
10304;DHT22;5197;48.152;8.590;2023-06-19T12:04:09;28.10;1.00
10304;DHT22;5197;48.152;8.590;2023-06-19T12:06:37;28.20;1.00
10304;DHT22;5197;48.152;8.590;2023-06-19T12:09:04;28.30;1.00
10304;DHT22;5197;48.152;8.590;2023-06-19T12:11:32;28.50;1.00
10304;DHT22;5197;48.152;8.590;2023-06-19T12:13:59;28.50;1.00
10304;DHT22;5197;48.152;8.590;2023-06-19T12:16:26;28.40;1.00
10304;DHT22;5197;48.152;8.590;2023-06-19T12:18:55;28.50;1.00
10304;DHT22;5197;48.152;8.590;2023-06-19T12:21:22;28.40;1.00
10304;DHT22;5197;48.152;8.590;2023-06-19T12:24:05;28.40;1.00
10304;DHT22;5197;48.152;8.590;2023-06-19T12:26:34;28.50;1.00
10304;DHT22;5197;48.152;8.590;2023-06-19T12:29:04;28.70;1.00
10304;DHT22;5197;48.152;8.590;2023-06-19T12:31:32;28.90;1.00
10304;DHT22;5197;48.152;8.590;2023-06-19T12:33:59;28.90;1.00
10304;DHT22;5197;48.152;8.590;2023-06-19T12:36:39;29.00;1.00
10304;DHT22;5197;48.152;8.590;2023-06-19T12:39:06;28.90;1.00
10304;DHT22;5197;48.152;8.590;2023-06-19T12:41:41;28.80;1.00
10304;DHT22;5197;48.152;8.590;2023-06-19T12:44:08;28.70;1.00
10304;DHT22;5197;48.152;8.590;2023-06-19T12:46:35;28.70;1.00
10304;DHT22;5197;48.152;8.590;2023-06-19T12:49:02;28.80;1.00
10304;DHT22;5197;48.152;8.590;2023-06-19T12:51:30;29.00;1.00
10304;DHT22;5197;48.152;8.590;2023-06-19T12:53:57;29.10;1.00
10304;DHT22;5197;48.152;8.590;2023-06-19T12:56:24;29.10;1.00
10304;DHT22;5197;48.152;8.590;2023-06-19T12:58:51;29.20;1.00
10304;DHT22;5197;48.152;8.590;2023-06-19T13:01:18;29.30;1.00
10304;DHT22;5197;48.152;8.590;2023-06-19T13:03:45;29.30;1.00
10304;DHT22;5197;48.152;8.590;2023-06-19T13:06:13;29.40;1.00
10304;DHT22;5197;48.152;8.590;2023-06-19T13:08:40;29.20;1.00
10304;DHT22;5197;48.152;8.590;2023-06-19T13:11:07;28.70;1.00
10304;DHT22;5197;48.152;8.590;2023-06-19T13:13:34;28.70;1.00
10304;DHT22;5197;48.152;8.590;2023-06-19T13:16:01;28.50;1.00
10304;DHT22;5197;48.152;8.590;2023-06-19T13:18:28;28.30;1.00
10304;DHT22;5197;48.152;8.590;2023-06-19T13:20:55;28.40;1.00
10304;DHT22;5197;48.152;8.590;2023-06-19T13:23:22;28.10;1.00
10304;DHT22;5197;48.152;8.590;2023-06-19T13:25:49;28.20;1.00
10304;DHT22;5197;48.152;8.590;2023-06-19T13:28:17;28.40;1.00
10304;DHT22;5197;48.152;8.590;2023-06-19T13:30:44;28.50;1.00
10304;DHT22;5197;48.152;8.590;2023-06-19T13:33:11;28.60;1.00
10304;DHT22;5197;48.152;8.590;2023-06-19T13:35:38;28.60;1.00
10304;DHT22;5197;48.152;8.590;2023-06-19T13:38:05;28.40;1.00
10304;DHT22;5197;48.152;8.590;2023-06-19T13:40:33;28.30;1.00
10304;DHT22;5197;48.152;8.590;2023-06-19T13:43:00;28.30;1.00
10304;DHT22;5197;48.152;8.590;2023-06-19T13:45:29;28.20;1.00
10304;DHT22;5197;48.152;8.590;2023-06-19T13:48:01;28.20;1.00
10304;DHT22;5197;48.152;8.590;2023-06-19T13:50:28;28.10;1.00
10304;DHT22;5197;48.152;8.590;2023-06-19T13:52:55;27.90;1.00
10304;DHT22;5197;48.152;8.590;2023-06-19T13:55:22;27.90;1.00
10304;DHT22;5197;48.152;8.590;2023-06-19T13:57:50;27.60;1.00
10304;DHT22;5197;48.152;8.590;2023-06-19T14:00:17;27.20;1.00
10304;DHT22;5197;48.152;8.590;2023-06-19T14:02:45;26.60;1.00
10304;DHT22;5197;48.152;8.590;2023-06-19T14:05:12;26.40;1.00
10304;DHT22;5197;48.152;8.590;2023-06-19T14:07:43;26.30;1.00
10304;DHT22;5197;48.152;8.590;2023-06-19T14:10:10;26.30;1.00
10304;DHT22;5197;48.152;8.590;2023-06-19T14:12:37;26.30;1.00
10304;DHT22;5197;48.152;8.590;2023-06-19T14:15:06;26.10;1.00
10304;DHT22;5197;48.152;8.590;2023-06-19T14:17:34;25.70;1.00
10304;DHT22;5197;48.152;8.590;2023-06-19T14:20:02;25.20;1.00
10304;DHT22;5197;48.152;8.590;2023-06-19T14:22:31;24.70;1.00
10304;DHT22;5197;48.152;8.590;2023-06-19T14:24:58;24.20;1.00
10304;DHT22;5197;48.152;8.590;2023-06-19T14:27:28;23.70;1.00
10304;DHT22;5197;48.152;8.590;2023-06-19T14:29:56;23.30;1.00
10304;DHT22;5197;48.152;8.590;2023-06-19T14:32:23;23.10;1.00
10304;DHT22;5197;48.152;8.590;2023-06-19T14:34:51;23.10;1.00
10304;DHT22;5197;48.152;8.590;2023-06-19T14:37:18;23.30;1.20
10304;DHT22;5197;48.152;8.590;2023-06-19T14:39:46;23.50;1.00
10304;DHT22;5197;48.152;8.590;2023-06-19T14:42:13;23.60;1.00
10304;DHT22;5197;48.152;8.590;2023-06-19T14:44:40;23.40;1.00
10304;DHT22;5197;48.152;8.590;2023-06-19T14:47:07;23.40;1.00
10304;DHT22;5197;48.152;8.590;2023-06-19T14:49:35;23.50;1.00
10304;DHT22;5197;48.152;8.590;2023-06-19T14:52:02;23.60;1.00
10304;DHT22;5197;48.152;8.590;2023-06-19T14:54:29;23.70;1.00
10304;DHT22;5197;48.152;8.590;2023-06-19T14:56:56;23.80;1.00
10304;DHT22;5197;48.152;8.590;2023-06-19T14:59:24;24.00;1.00
10304;DHT22;5197;48.152;8.590;2023-06-19T15:01:51;24.30;1.00
10304;DHT22;5197;48.152;8.590;2023-06-19T15:04:18;24.70;1.00
10304;DHT22;5197;48.152;8.590;2023-06-19T15:06:45;25.00;1.00
10304;DHT22;5197;48.152;8.590;2023-06-19T15:09:12;25.40;1.00
10304;DHT22;5197;48.152;8.590;2023-06-19T15:11:39;24.00;1.00
10304;DHT22;5197;48.152;8.590;2023-06-19T15:14:06;26.10;1.00
10304;DHT22;5197;48.152;8.590;2023-06-19T15:16:33;26.30;1.00
10304;DHT22;5197;48.152;8.590;2023-06-19T15:19:03;26.60;1.00
10304;DHT22;5197;48.152;8.590;2023-06-19T15:21:30;26.60;1.00
10304;DHT22;5197;48.152;8.590;2023-06-19T15:23:57;26.60;1.00
10304;DHT22;5197;48.152;8.590;2023-06-19T15:26:25;26.70;1.00
10304;DHT22;5197;48.152;8.590;2023-06-19T15:28:52;26.80;1.00
10304;DHT22;5197;48.152;8.590;2023-06-19T15:31:23;26.80;1.00
10304;DHT22;5197;48.152;8.590;2023-06-19T15:33:50;26.80;1.00
10304;DHT22;5197;48.152;8.590;2023-06-19T15:36:17;26.80;1.00
10304;DHT22;5197;48.152;8.590;2023-06-19T15:38:44;26.80;1.00
10304;DHT22;5197;48.152;8.590;2023-06-19T15:41:12;26.80;1.00
10304;DHT22;5197;48.152;8.590;2023-06-19T15:43:39;26.80;1.00
10304;DHT22;5197;48.152;8.590;2023-06-19T15:46:06;27.00;1.00
10304;DHT22;5197;48.152;8.590;2023-06-19T15:48:35;27.20;1.00
10304;DHT22;5197;48.152;8.590;2023-06-19T15:51:02;27.70;1.00
10304;DHT22;5197;48.152;8.590;2023-06-19T15:53:29;27.70;1.00
10304;DHT22;5197;48.152;8.590;2023-06-19T15:55:56;27.70;1.00
10304;DHT22;5197;48.152;8.590;2023-06-19T15:58:23;27.80;1.00
10304;DHT22;5197;48.152;8.590;2023-06-19T16:00:51;27.80;1.00
10304;DHT22;5197;48.152;8.590;2023-06-19T16:03:20;27.70;1.00
10304;DHT22;5197;48.152;8.590;2023-06-19T16:05:48;27.60;1.00
10304;DHT22;5197;48.152;8.590;2023-06-19T16:08:32;27.50;1.00
10304;DHT22;5197;48.152;8.590;2023-06-19T16:10:59;27.00;1.00